Accueil
Images satellite Prévisions 15 joursClimatMétéo marine Cyclones Foudre AéroportsFAQ Actualités A propos
Météo : Europe Afrique Amérique du Nord Amérique du Sud Asie Australie-Océanie Autres
Langues Contact

Bergerac, France

Roumanière

latitude: 44-49N, longitude: 000-31E, altitude: 51 m


METAR: LFBE 181530Z AUTO 32010KT 270V350 9999 NSC 21/08 Q1012
short-TAF: LFBE 181400Z 1815/1824 26008KT CAVOK BECMG 1815/1818 33010KT
long-TAF: périmé (49241 heures)

Heure: 17:38 (15:38 UTC)

Observation

Le bulletin a été fait il y a 8 minutes, à 15:30 UTC  
Vent 10 kt de nord-ouest, variant entre ouest et nord
Température 21°C
Humidité 43%
Pression 1012 hPa
Visibilité 10 km ou plus

Changer d'unités

Prévision

Le bulletin a été fait il y a 1 heure et 23 minutes, à 14:15 UTC  
Prévision valable du 18 à 15 UTC au 18 à 24 UTC
Vent 08 kt de ouest
Visibilité 10 km ou plus
pas de nuages en-dessous de 1500 mètres et pas de cumulonimbus.
Evoluant progressivement
du 18 à 15 UTC au 18 à 18 UTC
Vent 10 kt de nord/nord-ouest
Les informations qui figurent sur ce site font l'objet d'une clause de non-responsabilité
Météo : Europe Afrique Amérique du Nord Amérique du Sud Asie Australie-Océanie Autres
Images satellite Prévisions 15 joursClimatMétéo marine Cyclones Foudre AéroportsFAQ Langues Contact Actualités A propos